createdAt,value
2022-10-31T00:00:09.488Z,101288.84
2022-10-31T00:02:11.222Z,101289.97
2022-10-31T00:04:13.001Z,101289.03
2022-10-31T00:06:14.722Z,101286.28
2022-10-31T00:08:16.963Z,101292.66
2022-10-31T00:10:18.426Z,101289.03
2022-10-31T00:12:21.269Z,101292.66
2022-10-31T00:14:22.750Z,101292.66
2022-10-31T00:16:25.782Z,101298.00
2022-10-31T00:18:27.337Z,101300.75
2022-10-31T00:20:30.222Z,101297.38
2022-10-31T00:22:31.707Z,101302.81
2022-10-31T00:24:33.235Z,101306.50
2022-10-31T00:26:34.957Z,101302.19
2022-10-31T00:28:37.902Z,101305.56
2022-10-31T00:30:39.774Z,101305.13
2022-10-31T00:32:41.285Z,101302.44
2022-10-31T00:34:42.773Z,101306.94
2022-10-31T00:36:44.346Z,101307.63
2022-10-31T00:38:47.132Z,101312.09
2022-10-31T00:40:48.788Z,101313.47
2022-10-31T00:42:50.409Z,101317.78
2022-10-31T00:44:53.315Z,101313.31
2022-10-31T00:46:54.870Z,101318.66
2022-10-31T00:48:56.385Z,101314.69
2022-10-31T00:51:00.753Z,101317.53
2022-10-31T00:53:02.234Z,101320.28
2022-10-31T00:55:04.372Z,101320.38
2022-10-31T00:57:06.015Z,101326.03
2022-10-31T00:59:07.508Z,101327.19
2022-10-31T01:01:10.528Z,101329.78
2022-10-31T01:03:12.128Z,101335.00
2022-10-31T01:05:13.683Z,101336.72
2022-10-31T01:07:15.239Z,101336.56
2022-10-31T01:09:16.785Z,101328.84
2022-10-31T01:11:21.501Z,101333.31
2022-10-31T01:13:23.026Z,101334.50
2022-10-31T01:15:24.651Z,101330.97
2022-10-31T01:17:27.505Z,101341.81
2022-10-31T01:19:29.068Z,101332.94
2022-10-31T01:21:34.514Z,101337.50
2022-10-31T01:23:37.108Z,101333.19
2022-10-31T01:25:38.656Z,101338.53
2022-10-31T01:27:40.176Z,101347.16
2022-10-31T01:29:41.654Z,101324.94
2022-10-31T01:31:43.268Z,101330.28
2022-10-31T01:33:48.583Z,101327.53
2022-10-31T01:35:50.076Z,101340.88
2022-10-31T01:37:51.632Z,101333.72
2022-10-31T01:39:53.186Z,101342.84
2022-10-31T01:41:55.213Z,101342.78
2022-10-31T01:43:59.255Z,101333.91
2022-10-31T01:46:00.893Z,101335.78
2022-10-31T01:48:02.841Z,101330.13
2022-10-31T01:50:13.143Z,101335.78
2022-10-31T01:52:21.106Z,101328.09
2022-10-31T01:54:24.946Z,101326.75
2022-10-31T01:56:27.089Z,101340.03
2022-10-31T01:58:31.995Z,101343.81
2022-10-31T02:00:33.979Z,101347.88
2022-10-31T02:02:36.106Z,101338.47
2022-10-31T02:04:38.070Z,101343.50
2022-10-31T02:06:47.434Z,101342.16
2022-10-31T02:08:49.212Z,101349.00
2022-10-31T02:10:53.892Z,101341.94
2022-10-31T02:12:59.038Z,101347.97
2022-10-31T02:15:01.768Z,101346.09
2022-10-31T02:17:03.363Z,101341.94
2022-10-31T02:19:09.424Z,101352.59
2022-10-31T02:21:19.364Z,101343.81
2022-10-31T02:23:50.308Z,101345.69
2022-10-31T02:26:19.727Z,101342.47
2022-10-31T02:28:47.110Z,101344.28
2022-10-31T02:31:04.129Z,101338.88
2022-10-31T02:33:21.231Z,101349.63
2022-10-31T02:35:35.600Z,101336.34
2022-10-31T02:37:44.572Z,101332.03
2022-10-31T02:39:55.101Z,101338.94
2022-10-31T02:42:04.942Z,101350.72
2022-10-31T02:44:11.148Z,101348.22
2022-10-31T02:46:20.260Z,101351.03
2022-10-31T02:48:26.285Z,101356.06
2022-10-31T02:50:31.905Z,101355.03
2022-10-31T02:52:35.125Z,101357.00
2022-10-31T02:54:37.156Z,101354.56
2022-10-31T02:56:39.109Z,101362.34
2022-10-31T02:58:46.330Z,101362.50
2022-10-31T03:01:05.001Z,101363.13
2022-10-31T03:03:15.754Z,101370.28
2022-10-31T03:05:29.848Z,101360.78
2022-10-31T03:07:35.501Z,101364.94
2022-10-31T03:09:48.733Z,101364.06
2022-10-31T03:11:58.424Z,101371.16
2022-10-31T03:14:12.589Z,101366.81
2022-10-31T03:16:17.015Z,101373.03
2022-10-31T03:18:24.246Z,101368.88
2022-10-31T03:20:34.486Z,101377.66
2022-10-31T03:22:39.749Z,101376.94
2022-10-31T03:24:42.823Z,101381.66
2022-10-31T03:26:47.831Z,101381.97
2022-10-31T03:28:54.592Z,101384.56
2022-10-31T03:30:58.202Z,101387.47
2022-10-31T03:33:04.112Z,101385.75
2022-10-31T03:35:10.763Z,101394.84
2022-10-31T03:37:17.781Z,101392.19
2022-10-31T03:39:22.325Z,101394.06
2022-10-31T03:41:29.195Z,101393.13
2022-10-31T03:43:38.336Z,101397.38
2022-10-31T03:45:44.069Z,101393.81
2022-10-31T03:47:45.629Z,101401.47
2022-10-31T03:49:47.190Z,101403.66
2022-10-31T03:51:55.786Z,101412.59
2022-10-31T03:54:03.409Z,101408.81
2022-10-31T03:56:12.280Z,101407.66
2022-10-31T03:58:22.347Z,101412.28
2022-10-31T04:00:24.194Z,101409.53
2022-10-31T04:02:32.114Z,101411.97
2022-10-31T04:04:38.031Z,101408.81
2022-10-31T04:06:42.690Z,101417.78
2022-10-31T04:08:50.042Z,101416.34
2022-10-31T04:10:53.638Z,101414.63
2022-10-31T04:13:02.929Z,101418.53
2022-10-31T04:15:08.391Z,101409.44
2022-10-31T04:17:19.213Z,101412.56
2022-10-31T04:19:20.747Z,101409.91
2022-10-31T04:21:28.333Z,101412.63
2022-10-31T04:23:29.985Z,101415.06
2022-10-31T04:25:32.849Z,101422.28
2022-10-31T04:27:34.453Z,101425.75
2022-10-31T04:29:35.988Z,101416.97
2022-10-31T04:31:37.478Z,101419.31
2022-10-31T04:33:39.044Z,101424.81
2022-10-31T04:35:41.018Z,101427.63
2022-10-31T04:37:51.552Z,101423.25
2022-10-31T04:39:53.084Z,101424.19
2022-10-31T04:41:55.921Z,101434.84
2022-10-31T04:43:57.456Z,101431.59
2022-10-31T04:45:58.973Z,101435.13
2022-10-31T04:48:00.773Z,101429.94
2022-10-31T04:50:03.194Z,101434.25
2022-10-31T04:52:04.889Z,101432.53
2022-10-31T04:54:06.499Z,101434.31
2022-10-31T04:56:08.123Z,101436.84
2022-10-31T04:58:11.656Z,101430.56
2022-10-31T05:00:15.263Z,101435.91
2022-10-31T05:02:18.698Z,101435.91
2022-10-31T05:04:20.336Z,101437.06
2022-10-31T05:06:21.847Z,101445.94
2022-10-31T05:08:23.333Z,101441.25
2022-10-31T05:10:27.853Z,101439.13
2022-10-31T05:12:29.304Z,101447.03
2022-10-31T05:14:32.156Z,101439.88
2022-10-31T05:16:33.705Z,101446.09
2022-10-31T05:18:35.285Z,101449.41
2022-10-31T05:20:36.778Z,101442.34
2022-10-31T05:22:38.428Z,101444.84
2022-10-31T05:24:39.962Z,101447.66
2022-10-31T05:26:41.975Z,101455.28
2022-10-31T05:28:43.513Z,101452.69
2022-10-31T05:30:46.442Z,101453.41
2022-10-31T05:32:49.572Z,101457.94
2022-10-31T05:34:51.117Z,101457.69
2022-10-31T05:36:52.642Z,101458.16
2022-10-31T05:38:54.175Z,101457.88
2022-10-31T05:40:58.215Z,101458.91
2022-10-31T05:43:02.574Z,101453.63
2022-10-31T05:45:05.151Z,101456.50
2022-10-31T05:47:08.090Z,101458.25
2022-10-31T05:49:09.622Z,101454.22
2022-10-31T05:51:11.105Z,101459.47
2022-10-31T05:53:12.623Z,101462.13
2022-10-31T05:55:14.335Z,101461.91
2022-10-31T05:57:15.830Z,101460.13
2022-10-31T05:59:20.442Z,101468.13
2022-10-31T06:01:22.094Z,101454.78
2022-10-31T06:03:26.274Z,101463.59
2022-10-31T06:05:28.245Z,101462.63
2022-10-31T06:07:33.343Z,101467.97
2022-10-31T06:09:34.808Z,101468.78
2022-10-31T06:11:36.360Z,101465.47
2022-10-31T06:13:37.823Z,101464.50
2022-10-31T06:15:39.340Z,101467.97
2022-10-31T06:17:40.953Z,101470.16
2022-10-31T06:19:43.954Z,101478.22
2022-10-31T06:21:45.464Z,101471.84
2022-10-31T06:23:48.874Z,101474.56
2022-10-31T06:25:52.223Z,101472.56
2022-10-31T06:27:53.857Z,101477.81
2022-10-31T06:29:55.385Z,101474.09
2022-10-31T06:31:56.965Z,101484.78
2022-10-31T06:33:58.507Z,101484.63
2022-10-31T06:36:01.695Z,101491.69
2022-10-31T06:38:03.838Z,101495.84
2022-10-31T06:40:06.457Z,101501.03
2022-10-31T06:42:08.026Z,101513.28
2022-10-31T06:44:09.583Z,101500.63
2022-10-31T06:46:11.125Z,101501.16
2022-10-31T06:48:17.203Z,101500.72
2022-10-31T06:50:24.205Z,101504.19
2022-10-31T06:52:27.107Z,101496.53
2022-10-31T06:54:28.691Z,101511.59
2022-10-31T06:56:30.176Z,101501.41
2022-10-31T06:58:31.697Z,101497.63
2022-10-31T07:00:33.887Z,101499.53
2022-10-31T07:02:35.475Z,101497.31
2022-10-31T07:04:37.074Z,101506.22
2022-10-31T07:06:39.003Z,101512.41
2022-10-31T07:08:41.988Z,101512.94
2022-10-31T07:10:44.006Z,101519.22
2022-10-31T07:12:45.560Z,101519.22
2022-10-31T07:14:47.020Z,101515.38
2022-10-31T07:16:50.183Z,101513.25
2022-10-31T07:18:51.936Z,101520.47
2022-10-31T07:20:54.011Z,101518.59
2022-10-31T07:22:55.592Z,101520.38
2022-10-31T07:24:58.775Z,101521.81
2022-10-31T07:27:03.225Z,101527.72
2022-10-31T07:29:04.829Z,101519.78
2022-10-31T07:31:06.947Z,101524.72
2022-10-31T07:33:09.514Z,101529.75
2022-10-31T07:35:13.128Z,101525.78
2022-10-31T07:37:14.802Z,101526.84
2022-10-31T07:39:16.377Z,101534.81
2022-10-31T07:41:21.744Z,101531.34
2022-10-31T07:43:23.325Z,101537.25
2022-10-31T07:45:25.011Z,101531.66
2022-10-31T07:47:29.480Z,101523.78
2022-10-31T07:49:31.433Z,101537.59
2022-10-31T07:51:33.073Z,101540.66
2022-10-31T07:53:34.592Z,101533.81
2022-10-31T07:55:37.102Z,101547.66
2022-10-31T07:57:40.034Z,101542.63
2022-10-31T07:59:41.583Z,101544.47
2022-10-31T08:01:43.123Z,101544.28
2022-10-31T08:03:44.728Z,101544.88
2022-10-31T08:05:46.604Z,101544.25
2022-10-31T08:07:48.169Z,101543.66
2022-10-31T08:09:49.805Z,101542.88
2022-10-31T08:11:51.331Z,101543.06
2022-10-31T08:13:54.305Z,101555.03
2022-10-31T08:15:55.913Z,101545.16
2022-10-31T08:17:57.926Z,101557.22
2022-10-31T08:19:59.744Z,101555.13
2022-10-31T08:22:01.322Z,101551.28
2022-10-31T08:24:02.898Z,101550.84
2022-10-31T08:26:04.720Z,101557.06
2022-10-31T08:28:07.109Z,101560.34
2022-10-31T08:30:11.278Z,101560.34
2022-10-31T08:32:12.939Z,101564.38
2022-10-31T08:34:14.729Z,101567.06
2022-10-31T08:36:16.307Z,101569.66
2022-10-31T08:38:18.088Z,101563.59
2022-10-31T08:40:23.024Z,101567.25
2022-10-31T08:42:24.600Z,101565.97
2022-10-31T08:44:26.253Z,101564.53
2022-10-31T08:46:29.469Z,101565.25
2022-10-31T08:48:31.080Z,101564.53
2022-10-31T08:50:34.560Z,101552.38
2022-10-31T08:53:02.833Z,101550.97
2022-10-31T08:54:57.901Z,101551.34
2022-10-31T08:56:59.512Z,101561.91
2022-10-31T08:59:04.425Z,101554.91
2022-10-31T09:01:06.288Z,101569.38
2022-10-31T09:03:12.544Z,101569.19
2022-10-31T09:05:14.317Z,101567.09
2022-10-31T09:07:23.282Z,101573.31
2022-10-31T09:09:25.474Z,101573.31
2022-10-31T09:11:27.081Z,101583.69
2022-10-31T09:13:30.566Z,101574.50
2022-10-31T09:15:32.307Z,101577.56
2022-10-31T09:17:36.416Z,101584.75
2022-10-31T09:19:39.390Z,101586.19
2022-10-31T09:21:41.244Z,101578.34
2022-10-31T09:23:43.074Z,101579.56
2022-10-31T09:25:50.023Z,101581.09
2022-10-31T09:27:52.260Z,101588.09
2022-10-31T09:29:53.842Z,101580.16
2022-10-31T09:31:57.030Z,101582.66
2022-10-31T09:33:58.636Z,101584.06
2022-10-31T09:36:01.704Z,101585.22
2022-10-31T09:38:05.015Z,101578.69
2022-10-31T09:40:07.075Z,101588.19
2022-10-31T09:42:29.942Z,101597.88
2022-10-31T09:44:45.215Z,101598.06
2022-10-31T09:46:54.492Z,101595.78
2022-10-31T09:49:17.625Z,101596.53
2022-10-31T09:51:24.447Z,101592.31
2022-10-31T09:53:33.121Z,101600.75
2022-10-31T09:55:38.051Z,101602.88
2022-10-31T09:57:42.503Z,101595.09
2022-10-31T09:59:45.940Z,101607.28
2022-10-31T10:01:51.879Z,101594.63
2022-10-31T10:03:58.415Z,101596.53
2022-10-31T10:06:14.050Z,101600.09
2022-10-31T10:08:20.650Z,101599.31
2022-10-31T10:10:30.140Z,101594.69
2022-10-31T10:12:44.329Z,101594.72
2022-10-31T10:14:57.512Z,101582.41
2022-10-31T10:17:13.090Z,101583.88
2022-10-31T10:19:31.278Z,101573.31
2022-10-31T10:21:42.914Z,101578.69
2022-10-31T10:23:57.991Z,101579.47
2022-10-31T10:26:13.852Z,101582.63
2022-10-31T10:28:22.163Z,101577.66
2022-10-31T10:30:31.249Z,101574.75
2022-10-31T10:32:40.157Z,101570.25
2022-10-31T10:34:46.453Z,101576.09
2022-10-31T10:36:53.017Z,101569.41
2022-10-31T10:39:00.989Z,101573.03
2022-10-31T10:41:06.408Z,101564.50
2022-10-31T10:43:32.829Z,101564.50
2022-10-31T10:45:34.550Z,101570.06
2022-10-31T10:47:42.211Z,101565.66
2022-10-31T10:49:45.918Z,101567.75
2022-10-31T10:54:53.810Z,101566.50
2022-10-31T10:57:06.799Z,101572.75
2022-10-31T10:59:12.906Z,101576.00
2022-10-31T11:03:25.669Z,101567.84
2022-10-31T11:05:36.269Z,101573.28
2022-10-31T11:07:40.851Z,101563.66
2022-10-31T11:09:43.795Z,101562.59
2022-10-31T11:11:45.570Z,101561.38
2022-10-31T11:13:50.152Z,101556.16
2022-10-31T11:15:56.718Z,101554.94
2022-10-31T11:17:58.670Z,101560.69
2022-10-31T11:20:06.316Z,101558.28
2022-10-31T11:22:08.218Z,101547.22
2022-10-31T11:24:15.931Z,101539.06
2022-10-31T11:26:21.585Z,101547.91
2022-10-31T11:28:23.393Z,101541.00
2022-10-31T11:30:27.750Z,101547.03
2022-10-31T11:32:29.284Z,101544.44
2022-10-31T11:34:33.789Z,101535.63
2022-10-31T11:36:40.231Z,101541.44
2022-10-31T11:38:43.651Z,101538.94
2022-10-31T11:40:58.627Z,101533.59
2022-10-31T11:43:01.883Z,101529.13
2022-10-31T11:45:14.623Z,101530.22
2022-10-31T11:47:24.489Z,101532.78
2022-10-31T11:49:31.206Z,101534.22
2022-10-31T11:51:35.586Z,101530.91
2022-10-31T11:53:39.580Z,101534.38
2022-10-31T11:55:41.112Z,101538.47
2022-10-31T11:57:45.712Z,101529.19
2022-10-31T11:59:53.672Z,101530.72
2022-10-31T12:01:57.371Z,101532.22
2022-10-31T12:04:07.377Z,101530.16
2022-10-31T12:06:13.260Z,101529.63
2022-10-31T12:08:14.874Z,101530.25
2022-10-31T12:10:21.327Z,101518.00
2022-10-31T12:12:51.774Z,101517.34
2022-10-31T12:15:10.790Z,101512.53
2022-10-31T12:17:16.306Z,101520.16
2022-10-31T12:19:28.831Z,101518.44
2022-10-31T12:21:53.165Z,101518.66
2022-10-31T12:24:04.985Z,101514.78
2022-10-31T12:26:16.473Z,101501.81
2022-10-31T12:28:46.410Z,101511.19
2022-10-31T12:31:10.675Z,101513.41
2022-10-31T12:33:24.369Z,101506.84
2022-10-31T12:35:41.922Z,101500.69
2022-10-31T12:38:06.006Z,101508.41
2022-10-31T12:40:29.042Z,101501.78
2022-10-31T12:42:46.609Z,101498.69
2022-10-31T12:45:04.914Z,101497.59
2022-10-31T12:47:27.402Z,101491.66
2022-10-31T12:49:43.110Z,101486.38
2022-10-31T12:51:51.918Z,101487.28
2022-10-31T12:54:14.601Z,101490.38
2022-10-31T12:56:32.571Z,101487.47
2022-10-31T12:58:39.619Z,101489.31
2022-10-31T13:00:48.838Z,101485.09
2022-10-31T13:02:55.761Z,101483.94
2022-10-31T13:05:02.709Z,101483.50
2022-10-31T13:07:09.503Z,101475.72
2022-10-31T13:09:15.691Z,101477.63
2022-10-31T13:11:22.439Z,101478.25
2022-10-31T13:13:28.421Z,101475.16
2022-10-31T13:15:42.146Z,101483.81
2022-10-31T13:17:48.036Z,101470.50
2022-10-31T13:19:52.801Z,101470.88
2022-10-31T13:22:04.066Z,101469.38
2022-10-31T13:24:13.261Z,101473.69
2022-10-31T13:26:22.510Z,101466.72
2022-10-31T13:28:34.664Z,101478.09
2022-10-31T13:30:40.986Z,101463.19
2022-10-31T13:32:49.748Z,101467.53
2022-10-31T13:34:56.006Z,101466.56
2022-10-31T13:37:05.226Z,101466.22
2022-10-31T13:39:24.515Z,101464.38
2022-10-31T13:41:41.499Z,101460.19
2022-10-31T13:44:01.689Z,101456.06
2022-10-31T13:46:03.354Z,101455.19
2022-10-31T13:48:20.841Z,101457.59
2022-10-31T13:50:26.168Z,101455.44
2022-10-31T13:52:27.995Z,101457.16
2022-10-31T13:54:34.328Z,101450.84
2022-10-31T13:56:36.046Z,101457.91
2022-10-31T13:58:38.915Z,101454.94
2022-10-31T14:00:44.587Z,101457.34
2022-10-31T14:02:48.580Z,101439.38
2022-10-31T14:07:08.930Z,101440.59
2022-10-31T14:09:26.849Z,101443.97
2022-10-31T14:11:34.539Z,101436.34
2022-10-31T14:13:44.119Z,101434.81
2022-10-31T14:15:55.208Z,101439.44
2022-10-31T14:18:04.554Z,101444.31
2022-10-31T14:20:33.043Z,101439.16
2022-10-31T14:22:42.355Z,101441.19
2022-10-31T14:24:44.701Z,101444.19
2022-10-31T14:26:53.997Z,101444.41
2022-10-31T14:28:57.323Z,101442.91
2022-10-31T14:31:00.825Z,101435.06
2022-10-31T14:33:21.285Z,101442.59
2022-10-31T14:35:26.483Z,101441.31
2022-10-31T14:37:56.327Z,101432.72
2022-10-31T14:40:18.489Z,101439.19
2022-10-31T14:42:34.831Z,101425.84
2022-10-31T14:44:50.282Z,101433.91
2022-10-31T14:47:00.379Z,101431.44
2022-10-31T14:49:31.166Z,101429.81
2022-10-31T14:51:39.456Z,101429.94
2022-10-31T14:53:47.748Z,101422.41
2022-10-31T14:55:52.430Z,101431.94
2022-10-31T14:58:00.611Z,101428.22
2022-10-31T15:00:05.240Z,101422.84
2022-10-31T15:02:15.886Z,101425.81
2022-10-31T15:04:24.072Z,101421.09
2022-10-31T15:06:27.398Z,101422.25
2022-10-31T15:08:34.320Z,101419.13
2022-10-31T15:10:38.331Z,101420.00
2022-10-31T15:12:42.805Z,101416.13
2022-10-31T15:14:44.379Z,101421.06
2022-10-31T15:16:48.932Z,101416.09
2022-10-31T15:18:56.092Z,101421.63
2022-10-31T15:20:59.436Z,101412.16
2022-10-31T15:23:01.482Z,101416.22
2022-10-31T15:25:03.427Z,101407.78
2022-10-31T15:27:11.547Z,101415.09
2022-10-31T15:29:17.186Z,101410.13
2022-10-31T15:31:19.036Z,101419.38
2022-10-31T15:33:22.856Z,101411.00
2022-10-31T15:35:27.165Z,101412.88
2022-10-31T15:37:31.791Z,101412.31
2022-10-31T15:39:33.360Z,101407.91
2022-10-31T15:41:36.947Z,101407.66
2022-10-31T15:43:40.992Z,101410.84
2022-10-31T15:45:43.475Z,101412.97
2022-10-31T15:47:49.133Z,101407.16
2022-10-31T15:49:54.949Z,101405.53
2022-10-31T15:51:56.734Z,101412.22
2022-10-31T15:53:59.470Z,101405.31
2022-10-31T15:56:04.776Z,101415.69
2022-10-31T15:58:12.797Z,101413.28
2022-10-31T16:00:25.805Z,101418.13
2022-10-31T16:02:28.314Z,101423.91
2022-10-31T16:04:30.793Z,101422.38
2022-10-31T16:06:34.705Z,101426.41
2022-10-31T16:08:37.883Z,101420.28
2022-10-31T16:10:41.779Z,101412.59
2022-10-31T16:12:45.765Z,101410.22
2022-10-31T16:14:47.730Z,101418.66
2022-10-31T16:16:53.094Z,101416.34
2022-10-31T16:18:56.522Z,101420.84
2022-10-31T16:20:58.567Z,101416.72
2022-10-31T16:23:00.809Z,101422.56
2022-10-31T16:25:09.705Z,101419.78
2022-10-31T16:27:19.454Z,101411.34
2022-10-31T16:29:27.266Z,101421.22
2022-10-31T16:31:31.677Z,101418.72
2022-10-31T16:33:36.082Z,101424.25
2022-10-31T16:35:39.259Z,101413.88
2022-10-31T16:37:41.485Z,101412.34
2022-10-31T16:39:43.005Z,101419.44
2022-10-31T16:41:49.659Z,101414.44
2022-10-31T16:43:52.621Z,101411.75
2022-10-31T16:45:54.131Z,101411.66
2022-10-31T16:48:03.926Z,101408.22
2022-10-31T16:50:17.008Z,101402.00
2022-10-31T16:52:18.728Z,101405.63
2022-10-31T16:54:20.302Z,101408.22
2022-10-31T16:56:31.329Z,101398.63
2022-10-31T16:58:35.344Z,101391.66
2022-10-31T17:00:37.263Z,101397.97
2022-10-31T17:02:39.082Z,101398.91
2022-10-31T17:04:40.596Z,101400.94
2022-10-31T17:06:43.524Z,101393.94
2022-10-31T17:08:45.064Z,101403.59
2022-10-31T17:10:48.619Z,101394.78
2022-10-31T17:12:51.170Z,101408.28
2022-10-31T17:14:52.940Z,101404.66
2022-10-31T17:17:01.925Z,101395.84
2022-10-31T17:19:03.674Z,101396.69
2022-10-31T17:21:05.920Z,101394.50
2022-10-31T17:23:10.033Z,101393.75
2022-10-31T17:25:14.573Z,101389.94
2022-10-31T17:27:16.116Z,101399.78
2022-10-31T17:29:17.624Z,101394.06
2022-10-31T17:31:22.073Z,101391.47
2022-10-31T17:33:23.788Z,101388.69
2022-10-31T17:35:25.713Z,101383.13
2022-10-31T17:37:27.211Z,101387.81
2022-10-31T17:39:30.093Z,101379.25
2022-10-31T17:41:31.555Z,101382.03
2022-10-31T17:43:33.079Z,101378.03
2022-10-31T17:45:34.681Z,101381.47
2022-10-31T17:47:36.290Z,101371.22
2022-10-31T17:49:40.063Z,101377.00
2022-10-31T17:51:41.793Z,101370.28
2022-10-31T17:53:43.387Z,101381.00
2022-10-31T17:55:46.431Z,101375.84
2022-10-31T17:57:48.050Z,101382.75
2022-10-31T17:59:49.596Z,101374.59
2022-10-31T18:01:51.241Z,101380.66
2022-10-31T18:03:52.822Z,101385.31
2022-10-31T18:05:56.743Z,101389.81
2022-10-31T18:08:03.782Z,101376.88
2022-10-31T18:10:06.366Z,101383.28
2022-10-31T18:12:09.425Z,101378.69
2022-10-31T18:14:11.162Z,101373.34
2022-10-31T18:16:15.033Z,101373.44
2022-10-31T18:18:16.853Z,101374.28
2022-10-31T18:20:18.389Z,101369.31
2022-10-31T18:22:22.584Z,101371.03
2022-10-31T18:24:24.247Z,101365.66
2022-10-31T18:26:27.552Z,101367.41
2022-10-31T18:28:30.544Z,101373.56
2022-10-31T18:30:32.656Z,101371.22
2022-10-31T18:32:34.359Z,101368.09
2022-10-31T18:34:36.035Z,101365.41
2022-10-31T18:36:37.573Z,101365.91
2022-10-31T18:38:40.069Z,101359.09
2022-10-31T18:40:41.648Z,101358.13
2022-10-31T18:42:43.276Z,101346.16
2022-10-31T18:44:46.194Z,101349.50
2022-10-31T18:46:50.562Z,101344.53
2022-10-31T18:48:52.237Z,101344.44
2022-10-31T18:50:53.868Z,101358.69
2022-10-31T18:52:55.946Z,101348.50
2022-10-31T18:54:57.475Z,101354.59
2022-10-31T18:56:58.992Z,101353.03
2022-10-31T18:59:02.526Z,101350.38
2022-10-31T19:01:08.127Z,101352.13
2022-10-31T19:03:09.833Z,101343.31
2022-10-31T19:05:14.415Z,101348.31
2022-10-31T19:07:15.993Z,101341.00
2022-10-31T19:09:17.647Z,101348.00
2022-10-31T19:11:19.452Z,101340.44
2022-10-31T19:13:21.086Z,101349.22
2022-10-31T19:15:22.755Z,101341.13
2022-10-31T19:17:26.119Z,101335.94
2022-10-31T19:19:27.727Z,101335.63
2022-10-31T19:21:29.497Z,101335.25
2022-10-31T19:23:33.902Z,101330.47
2022-10-31T19:25:35.679Z,101330.66
2022-10-31T19:27:37.364Z,101327.81
2022-10-31T19:29:39.168Z,101324.53
2022-10-31T19:31:40.922Z,101329.22
2022-10-31T19:33:43.882Z,101326.25
2022-10-31T19:35:45.613Z,101318.81
2022-10-31T19:37:49.701Z,101308.84
2022-10-31T19:39:51.866Z,101310.72
2022-10-31T19:41:53.509Z,101314.19
2022-10-31T19:43:55.586Z,101305.19
2022-10-31T19:45:58.531Z,101302.34
2022-10-31T19:48:00.676Z,101309.59
2022-10-31T19:50:06.340Z,101304.66
2022-10-31T19:52:08.054Z,101307.69
2022-10-31T19:54:10.799Z,101300.16
2022-10-31T19:56:14.425Z,101306.19
2022-10-31T19:58:16.117Z,101299.28
2022-10-31T20:00:20.792Z,101301.28
2022-10-31T20:02:22.419Z,101296.88
2022-10-31T20:04:24.031Z,101291.44
2022-10-31T20:06:29.012Z,101288.94
2022-10-31T20:08:30.607Z,101278.56
2022-10-31T20:10:35.024Z,101280.28
2022-10-31T20:12:36.591Z,101291.19
2022-10-31T20:14:38.130Z,101281.72
2022-10-31T20:16:39.694Z,101282.66
2022-10-31T20:18:41.825Z,101281.03
2022-10-31T20:20:46.437Z,101277.09
2022-10-31T20:22:49.435Z,101276.81
2022-10-31T20:24:53.989Z,101275.84
2022-10-31T20:26:55.518Z,101275.84
2022-10-31T20:28:57.862Z,101273.38
2022-10-31T20:31:00.124Z,101278.03
2022-10-31T20:33:01.780Z,101270.09
2022-10-31T20:35:03.708Z,101266.94
2022-10-31T20:37:05.505Z,101267.41
2022-10-31T20:39:08.747Z,101272.19
2022-10-31T20:41:11.299Z,101270.47
2022-10-31T20:43:12.956Z,101263.97
2022-10-31T20:45:14.590Z,101267.59
2022-10-31T20:47:16.102Z,101267.59
2022-10-31T20:49:17.666Z,101257.66
2022-10-31T20:51:21.253Z,101266.38
2022-10-31T20:53:22.839Z,101259.38
2022-10-31T20:55:25.833Z,101254.31
2022-10-31T20:57:27.426Z,101255.16
2022-10-31T20:59:29.047Z,101254.75
2022-10-31T21:01:32.350Z,101250.00
2022-10-31T21:03:34.091Z,101252.19
2022-10-31T21:05:35.612Z,101256.41
2022-10-31T21:07:37.218Z,101242.34
2022-10-31T21:09:38.988Z,101254.75
2022-10-31T21:11:41.981Z,101249.41
2022-10-31T21:13:45.053Z,101242.69
2022-10-31T21:15:46.923Z,101255.03
2022-10-31T21:17:48.438Z,101249.88
2022-10-31T21:19:49.987Z,101255.03
2022-10-31T21:21:51.521Z,101249.19
2022-10-31T21:23:54.711Z,101247.28
2022-10-31T21:25:56.485Z,101240.56
2022-10-31T21:27:59.686Z,101235.22
2022-10-31T21:30:01.511Z,101228.69
2022-10-31T21:32:06.264Z,101232.47
2022-10-31T21:34:10.336Z,101228.50
2022-10-31T21:36:12.351Z,101223.31
2022-10-31T21:38:14.104Z,101218.31
2022-10-31T21:40:15.640Z,101223.69
2022-10-31T21:42:21.346Z,101217.47
2022-10-31T21:44:27.218Z,101217.66
2022-10-31T21:46:31.224Z,101219.53
2022-10-31T21:48:33.338Z,101210.91
2022-10-31T21:50:35.344Z,101214.28
2022-10-31T21:52:39.584Z,101200.91
2022-10-31T21:54:41.137Z,101203.81
2022-10-31T21:56:43.156Z,101195.03
2022-10-31T21:58:45.209Z,101207.72
2022-10-31T22:00:48.088Z,101204.00
2022-10-31T22:02:49.653Z,101202.53
2022-10-31T22:04:51.278Z,101192.78
2022-10-31T22:06:53.158Z,101202.63
2022-10-31T22:08:54.874Z,101202.88
2022-10-31T22:10:56.459Z,101205.81
2022-10-31T22:12:57.945Z,101203.22
2022-10-31T22:14:59.524Z,101206.59
2022-10-31T22:17:02.501Z,101200.28
2022-10-31T22:19:05.293Z,101198.16
2022-10-31T22:21:09.530Z,101200.06
2022-10-31T22:23:11.066Z,101201.78
2022-10-31T22:25:12.578Z,101194.88
2022-10-31T22:27:14.109Z,101191.06
2022-10-31T22:29:17.198Z,101195.28
2022-10-31T22:31:20.525Z,101196.44
2022-10-31T22:33:23.911Z,101189.84
2022-10-31T22:35:25.613Z,101189.53
2022-10-31T22:37:27.166Z,101184.09
2022-10-31T22:39:28.911Z,101187.78
2022-10-31T22:41:32.969Z,101183.22
2022-10-31T22:43:34.609Z,101179.59
2022-10-31T22:45:36.132Z,101174.50
2022-10-31T22:49:47.695Z,101166.25
2022-10-31T22:51:51.206Z,101164.59
2022-10-31T22:53:52.983Z,101155.00
2022-10-31T22:55:54.474Z,101150.34
2022-10-31T22:57:55.967Z,101148.38
2022-10-31T22:59:57.524Z,101151.06
2022-10-31T23:01:59.345Z,101145.88
2022-10-31T23:04:03.378Z,101133.47
2022-10-31T23:06:07.554Z,101138.63
2022-10-31T23:08:09.047Z,101141.41
2022-10-31T23:10:10.605Z,101135.88
2022-10-31T23:12:12.078Z,101129.66
2022-10-31T23:14:16.444Z,101129.47
2022-10-31T23:16:18.142Z,101137.31
2022-10-31T23:18:47.929Z,101131.13
2022-10-31T23:20:50.808Z,101129.75
2022-10-31T23:22:53.699Z,101127.22
2022-10-31T23:24:55.416Z,101127.06
2022-10-31T23:26:58.156Z,101111.03
2022-10-31T23:28:59.695Z,101120.41
2022-10-31T23:31:01.301Z,101113.44
2022-10-31T23:33:03.108Z,101113.25
2022-10-31T23:35:06.906Z,101122.91
2022-10-31T23:39:19.950Z,101105.13
2022-10-31T23:41:24.327Z,101106.69
2022-10-31T23:43:25.824Z,101105.91
2022-10-31T23:45:27.350Z,101101.16
2022-10-31T23:47:28.945Z,101102.97
2022-10-31T23:49:30.669Z,101083.19
2022-10-31T23:51:32.329Z,101084.91
2022-10-31T23:53:33.848Z,101083.47
2022-10-31T23:55:37.086Z,101084.16